sensor_id;sensor_type;location;lat;lon;timestamp;P1;durP1;ratioP1;P2;durP2;ratioP2
11837;SDS011;5978;51.020;6.764;2023-04-19T00:01:36;20.60;;;15.30;;
11837;SDS011;5978;51.020;6.764;2023-04-19T00:04:03;22.83;;;15.07;;
11837;SDS011;5978;51.020;6.764;2023-04-19T00:06:29;19.60;;;15.30;;
11837;SDS011;5978;51.020;6.764;2023-04-19T00:08:55;20.40;;;14.47;;
11837;SDS011;5978;51.020;6.764;2023-04-19T00:11:21;20.10;;;17.60;;
11837;SDS011;5978;51.020;6.764;2023-04-19T00:13:47;18.67;;;14.60;;
11837;SDS011;5978;51.020;6.764;2023-04-19T00:16:13;19.40;;;15.37;;
11837;SDS011;5978;51.020;6.764;2023-04-19T00:18:40;20.53;;;15.73;;
11837;SDS011;5978;51.020;6.764;2023-04-19T00:21:06;19.77;;;15.07;;
11837;SDS011;5978;51.020;6.764;2023-04-19T00:23:33;20.20;;;15.90;;
11837;SDS011;5978;51.020;6.764;2023-04-19T00:26:01;24.30;;;16.17;;
11837;SDS011;5978;51.020;6.764;2023-04-19T00:28:27;19.33;;;14.80;;
11837;SDS011;5978;51.020;6.764;2023-04-19T00:30:53;18.73;;;14.97;;
11837;SDS011;5978;51.020;6.764;2023-04-19T00:33:19;18.07;;;14.60;;
11837;SDS011;5978;51.020;6.764;2023-04-19T00:35:44;20.43;;;15.07;;
11837;SDS011;5978;51.020;6.764;2023-04-19T00:38:10;21.03;;;14.70;;
11837;SDS011;5978;51.020;6.764;2023-04-19T00:40:36;20.00;;;15.30;;
11837;SDS011;5978;51.020;6.764;2023-04-19T00:43:02;20.73;;;16.13;;
11837;SDS011;5978;51.020;6.764;2023-04-19T00:45:28;19.60;;;14.67;;
11837;SDS011;5978;51.020;6.764;2023-04-19T00:47:54;21.27;;;14.67;;
11837;SDS011;5978;51.020;6.764;2023-04-19T00:50:20;18.10;;;15.00;;
11837;SDS011;5978;51.020;6.764;2023-04-19T00:52:46;21.33;;;16.07;;
11837;SDS011;5978;51.020;6.764;2023-04-19T00:55:12;20.30;;;14.00;;
11837;SDS011;5978;51.020;6.764;2023-04-19T00:57:38;20.10;;;16.53;;
11837;SDS011;5978;51.020;6.764;2023-04-19T01:00:05;18.97;;;15.63;;
11837;SDS011;5978;51.020;6.764;2023-04-19T01:02:33;23.50;;;15.47;;
11837;SDS011;5978;51.020;6.764;2023-04-19T01:04:59;18.73;;;13.80;;
11837;SDS011;5978;51.020;6.764;2023-04-19T01:07:25;21.23;;;14.80;;
11837;SDS011;5978;51.020;6.764;2023-04-19T01:09:50;20.27;;;15.67;;
11837;SDS011;5978;51.020;6.764;2023-04-19T01:12:16;20.70;;;16.77;;
11837;SDS011;5978;51.020;6.764;2023-04-19T01:14:42;17.20;;;13.70;;
11837;SDS011;5978;51.020;6.764;2023-04-19T01:17:08;15.83;;;13.00;;
11837;SDS011;5978;51.020;6.764;2023-04-19T01:19:35;20.70;;;15.83;;
11837;SDS011;5978;51.020;6.764;2023-04-19T01:22:01;24.27;;;14.87;;
11837;SDS011;5978;51.020;6.764;2023-04-19T01:24:30;17.97;;;14.30;;
11837;SDS011;5978;51.020;6.764;2023-04-19T01:26:56;23.90;;;15.70;;
11837;SDS011;5978;51.020;6.764;2023-04-19T01:29:21;21.37;;;15.70;;
11837;SDS011;5978;51.020;6.764;2023-04-19T01:31:47;21.50;;;15.60;;
11837;SDS011;5978;51.020;6.764;2023-04-19T01:34:17;25.50;;;17.47;;
11837;SDS011;5978;51.020;6.764;2023-04-19T01:36:44;21.70;;;16.10;;
11837;SDS011;5978;51.020;6.764;2023-04-19T01:39:09;20.60;;;14.90;;
11837;SDS011;5978;51.020;6.764;2023-04-19T01:41:35;28.37;;;15.93;;
11837;SDS011;5978;51.020;6.764;2023-04-19T01:44:01;20.50;;;16.33;;
11837;SDS011;5978;51.020;6.764;2023-04-19T01:46:27;24.07;;;16.40;;
11837;SDS011;5978;51.020;6.764;2023-04-19T01:48:52;22.37;;;16.47;;
11837;SDS011;5978;51.020;6.764;2023-04-19T01:51:18;21.67;;;16.53;;
11837;SDS011;5978;51.020;6.764;2023-04-19T01:53:45;20.23;;;15.73;;
11837;SDS011;5978;51.020;6.764;2023-04-19T01:56:16;20.80;;;15.70;;
11837;SDS011;5978;51.020;6.764;2023-04-19T01:58:42;20.70;;;15.73;;
11837;SDS011;5978;51.020;6.764;2023-04-19T02:01:07;24.67;;;16.10;;
11837;SDS011;5978;51.020;6.764;2023-04-19T02:03:36;20.73;;;16.20;;
11837;SDS011;5978;51.020;6.764;2023-04-19T02:06:02;23.10;;;15.97;;
11837;SDS011;5978;51.020;6.764;2023-04-19T02:08:28;22.60;;;15.90;;
11837;SDS011;5978;51.020;6.764;2023-04-19T02:10:53;22.57;;;16.43;;
11837;SDS011;5978;51.020;6.764;2023-04-19T02:13:19;23.20;;;16.87;;
11837;SDS011;5978;51.020;6.764;2023-04-19T02:15:45;21.60;;;15.83;;
11837;SDS011;5978;51.020;6.764;2023-04-19T02:18:11;23.07;;;16.47;;
11837;SDS011;5978;51.020;6.764;2023-04-19T02:20:37;25.20;;;15.93;;
11837;SDS011;5978;51.020;6.764;2023-04-19T02:23:03;22.47;;;16.20;;
11837;SDS011;5978;51.020;6.764;2023-04-19T02:25:29;24.67;;;18.20;;
11837;SDS011;5978;51.020;6.764;2023-04-19T02:27:55;26.70;;;16.67;;
11837;SDS011;5978;51.020;6.764;2023-04-19T02:30:20;23.67;;;16.93;;
11837;SDS011;5978;51.020;6.764;2023-04-19T02:32:47;23.20;;;16.20;;
11837;SDS011;5978;51.020;6.764;2023-04-19T02:35:13;23.20;;;16.67;;
11837;SDS011;5978;51.020;6.764;2023-04-19T02:37:39;23.60;;;16.60;;
11837;SDS011;5978;51.020;6.764;2023-04-19T02:40:05;25.20;;;17.43;;
11837;SDS011;5978;51.020;6.764;2023-04-19T02:42:31;23.10;;;16.23;;
11837;SDS011;5978;51.020;6.764;2023-04-19T02:44:57;22.17;;;16.80;;
11837;SDS011;5978;51.020;6.764;2023-04-19T02:47:22;24.00;;;18.10;;
11837;SDS011;5978;51.020;6.764;2023-04-19T02:49:48;24.07;;;17.27;;
11837;SDS011;5978;51.020;6.764;2023-04-19T02:52:14;23.83;;;16.40;;
11837;SDS011;5978;51.020;6.764;2023-04-19T02:54:39;23.40;;;17.47;;
11837;SDS011;5978;51.020;6.764;2023-04-19T02:57:05;23.13;;;17.30;;
11837;SDS011;5978;51.020;6.764;2023-04-19T02:59:31;21.50;;;15.80;;
11837;SDS011;5978;51.020;6.764;2023-04-19T03:01:59;27.70;;;17.23;;
11837;SDS011;5978;51.020;6.764;2023-04-19T03:04:24;24.60;;;16.80;;
11837;SDS011;5978;51.020;6.764;2023-04-19T03:06:51;23.47;;;16.10;;
11837;SDS011;5978;51.020;6.764;2023-04-19T03:09:16;23.63;;;15.63;;
11837;SDS011;5978;51.020;6.764;2023-04-19T03:11:42;21.70;;;14.73;;
11837;SDS011;5978;51.020;6.764;2023-04-19T03:14:08;19.90;;;16.70;;
11837;SDS011;5978;51.020;6.764;2023-04-19T03:16:34;22.03;;;16.30;;
11837;SDS011;5978;51.020;6.764;2023-04-19T03:19:00;21.60;;;15.60;;
11837;SDS011;5978;51.020;6.764;2023-04-19T03:21:26;21.90;;;14.73;;
11837;SDS011;5978;51.020;6.764;2023-04-19T03:23:53;17.13;;;13.90;;
11837;SDS011;5978;51.020;6.764;2023-04-19T03:26:19;22.47;;;15.40;;
11837;SDS011;5978;51.020;6.764;2023-04-19T03:28:45;18.60;;;13.73;;
11837;SDS011;5978;51.020;6.764;2023-04-19T03:31:11;26.37;;;15.90;;
11837;SDS011;5978;51.020;6.764;2023-04-19T03:33:36;22.50;;;16.07;;
11837;SDS011;5978;51.020;6.764;2023-04-19T03:36:02;21.93;;;14.97;;
11837;SDS011;5978;51.020;6.764;2023-04-19T03:38:28;22.63;;;13.80;;
11837;SDS011;5978;51.020;6.764;2023-04-19T03:40:54;19.10;;;15.57;;
11837;SDS011;5978;51.020;6.764;2023-04-19T03:43:21;21.20;;;14.90;;
11837;SDS011;5978;51.020;6.764;2023-04-19T03:45:48;24.03;;;16.13;;
11837;SDS011;5978;51.020;6.764;2023-04-19T03:48:14;21.20;;;15.07;;
11837;SDS011;5978;51.020;6.764;2023-04-19T03:50:40;24.60;;;16.77;;
11837;SDS011;5978;51.020;6.764;2023-04-19T03:53:06;23.17;;;15.83;;
11837;SDS011;5978;51.020;6.764;2023-04-19T03:55:31;18.27;;;15.23;;
11837;SDS011;5978;51.020;6.764;2023-04-19T03:57:57;23.63;;;15.70;;
11837;SDS011;5978;51.020;6.764;2023-04-19T04:00:23;21.40;;;15.63;;
11837;SDS011;5978;51.020;6.764;2023-04-19T04:02:48;23.00;;;17.00;;
11837;SDS011;5978;51.020;6.764;2023-04-19T04:05:14;19.03;;;14.63;;
11837;SDS011;5978;51.020;6.764;2023-04-19T04:07:40;19.67;;;15.37;;
11837;SDS011;5978;51.020;6.764;2023-04-19T04:10:06;25.13;;;16.13;;
11837;SDS011;5978;51.020;6.764;2023-04-19T04:12:32;21.33;;;15.27;;
11837;SDS011;5978;51.020;6.764;2023-04-19T04:14:58;19.43;;;15.27;;
11837;SDS011;5978;51.020;6.764;2023-04-19T04:17:23;27.73;;;16.93;;
11837;SDS011;5978;51.020;6.764;2023-04-19T04:19:49;21.37;;;16.43;;
11837;SDS011;5978;51.020;6.764;2023-04-19T04:22:15;24.43;;;15.50;;
11837;SDS011;5978;51.020;6.764;2023-04-19T04:24:41;21.80;;;16.60;;
11837;SDS011;5978;51.020;6.764;2023-04-19T04:27:08;22.93;;;15.63;;
11837;SDS011;5978;51.020;6.764;2023-04-19T04:29:37;21.13;;;15.43;;
11837;SDS011;5978;51.020;6.764;2023-04-19T04:32:07;19.37;;;14.50;;
11837;SDS011;5978;51.020;6.764;2023-04-19T04:34:34;19.77;;;16.00;;
11837;SDS011;5978;51.020;6.764;2023-04-19T04:37:01;21.33;;;16.03;;
11837;SDS011;5978;51.020;6.764;2023-04-19T04:39:27;26.37;;;16.80;;
11837;SDS011;5978;51.020;6.764;2023-04-19T04:41:54;19.97;;;15.63;;
11837;SDS011;5978;51.020;6.764;2023-04-19T04:44:21;27.53;;;16.07;;
11837;SDS011;5978;51.020;6.764;2023-04-19T04:46:47;17.83;;;15.20;;
11837;SDS011;5978;51.020;6.764;2023-04-19T04:49:13;21.70;;;15.50;;
11837;SDS011;5978;51.020;6.764;2023-04-19T04:51:39;19.63;;;16.13;;
11837;SDS011;5978;51.020;6.764;2023-04-19T04:54:05;20.13;;;16.03;;
11837;SDS011;5978;51.020;6.764;2023-04-19T04:56:30;23.10;;;15.80;;
11837;SDS011;5978;51.020;6.764;2023-04-19T04:58:56;23.07;;;17.30;;
11837;SDS011;5978;51.020;6.764;2023-04-19T05:01:21;22.63;;;16.53;;
11837;SDS011;5978;51.020;6.764;2023-04-19T05:03:48;22.30;;;15.40;;
11837;SDS011;5978;51.020;6.764;2023-04-19T05:06:14;23.93;;;16.63;;
11837;SDS011;5978;51.020;6.764;2023-04-19T05:08:39;17.70;;;15.10;;
11837;SDS011;5978;51.020;6.764;2023-04-19T05:11:05;27.87;;;15.73;;
11837;SDS011;5978;51.020;6.764;2023-04-19T05:13:31;18.00;;;14.23;;
11837;SDS011;5978;51.020;6.764;2023-04-19T05:15:56;21.73;;;14.60;;
11837;SDS011;5978;51.020;6.764;2023-04-19T05:18:22;17.70;;;13.70;;
11837;SDS011;5978;51.020;6.764;2023-04-19T05:20:48;23.30;;;14.77;;
11837;SDS011;5978;51.020;6.764;2023-04-19T05:23:14;17.27;;;13.03;;
11837;SDS011;5978;51.020;6.764;2023-04-19T05:25:40;19.27;;;13.90;;
11837;SDS011;5978;51.020;6.764;2023-04-19T05:28:05;17.83;;;13.20;;
11837;SDS011;5978;51.020;6.764;2023-04-19T05:30:31;18.07;;;13.10;;
11837;SDS011;5978;51.020;6.764;2023-04-19T05:32:57;18.23;;;14.33;;
11837;SDS011;5978;51.020;6.764;2023-04-19T05:35:23;17.40;;;13.33;;
11837;SDS011;5978;51.020;6.764;2023-04-19T05:37:48;17.40;;;13.20;;
11837;SDS011;5978;51.020;6.764;2023-04-19T05:40:14;15.00;;;12.87;;
11837;SDS011;5978;51.020;6.764;2023-04-19T05:42:39;16.17;;;12.53;;
11837;SDS011;5978;51.020;6.764;2023-04-19T05:45:05;16.53;;;12.13;;
11837;SDS011;5978;51.020;6.764;2023-04-19T05:47:32;16.50;;;12.30;;
11837;SDS011;5978;51.020;6.764;2023-04-19T05:49:57;18.97;;;12.37;;
11837;SDS011;5978;51.020;6.764;2023-04-19T05:52:23;18.57;;;13.33;;
11837;SDS011;5978;51.020;6.764;2023-04-19T05:54:49;15.80;;;11.50;;
11837;SDS011;5978;51.020;6.764;2023-04-19T05:57:14;15.57;;;11.10;;
11837;SDS011;5978;51.020;6.764;2023-04-19T05:59:41;14.93;;;10.90;;
11837;SDS011;5978;51.020;6.764;2023-04-19T06:02:06;16.07;;;11.17;;
11837;SDS011;5978;51.020;6.764;2023-04-19T06:04:32;15.73;;;10.27;;
11837;SDS011;5978;51.020;6.764;2023-04-19T06:06:58;10.37;;;8.40;;
11837;SDS011;5978;51.020;6.764;2023-04-19T06:09:23;12.23;;;8.67;;
11837;SDS011;5978;51.020;6.764;2023-04-19T06:11:49;10.37;;;9.27;;
11837;SDS011;5978;51.020;6.764;2023-04-19T06:14:15;12.27;;;8.93;;
11837;SDS011;5978;51.020;6.764;2023-04-19T06:16:40;10.60;;;8.33;;
11837;SDS011;5978;51.020;6.764;2023-04-19T06:19:06;14.27;;;7.90;;
11837;SDS011;5978;51.020;6.764;2023-04-19T06:21:32;11.17;;;8.63;;
11837;SDS011;5978;51.020;6.764;2023-04-19T06:23:58;8.60;;;7.30;;
11837;SDS011;5978;51.020;6.764;2023-04-19T06:26:24;11.57;;;8.20;;
11837;SDS011;5978;51.020;6.764;2023-04-19T06:28:50;9.80;;;7.83;;
11837;SDS011;5978;51.020;6.764;2023-04-19T06:31:16;8.43;;;6.67;;
11837;SDS011;5978;51.020;6.764;2023-04-19T06:33:41;13.33;;;7.93;;
11837;SDS011;5978;51.020;6.764;2023-04-19T06:36:07;7.77;;;6.97;;
11837;SDS011;5978;51.020;6.764;2023-04-19T06:38:34;9.70;;;6.77;;
11837;SDS011;5978;51.020;6.764;2023-04-19T06:41:00;11.93;;;7.63;;
11837;SDS011;5978;51.020;6.764;2023-04-19T06:43:25;11.43;;;7.83;;
11837;SDS011;5978;51.020;6.764;2023-04-19T06:46:00;13.07;;;7.43;;
11837;SDS011;5978;51.020;6.764;2023-04-19T06:48:27;9.00;;;7.37;;
11837;SDS011;5978;51.020;6.764;2023-04-19T06:50:53;10.33;;;7.30;;
11837;SDS011;5978;51.020;6.764;2023-04-19T06:53:18;9.30;;;7.10;;
11837;SDS011;5978;51.020;6.764;2023-04-19T06:55:44;14.90;;;6.70;;
11837;SDS011;5978;51.020;6.764;2023-04-19T06:58:10;14.10;;;7.87;;
11837;SDS011;5978;51.020;6.764;2023-04-19T07:00:36;8.60;;;7.30;;
11837;SDS011;5978;51.020;6.764;2023-04-19T07:03:02;7.27;;;5.77;;
11837;SDS011;5978;51.020;6.764;2023-04-19T07:05:28;9.00;;;6.50;;
11837;SDS011;5978;51.020;6.764;2023-04-19T07:07:55;9.80;;;7.67;;
11837;SDS011;5978;51.020;6.764;2023-04-19T07:10:20;9.80;;;6.93;;
11837;SDS011;5978;51.020;6.764;2023-04-19T07:12:46;8.43;;;6.67;;
11837;SDS011;5978;51.020;6.764;2023-04-19T07:15:12;7.37;;;6.20;;
11837;SDS011;5978;51.020;6.764;2023-04-19T07:17:38;11.10;;;7.23;;
11837;SDS011;5978;51.020;6.764;2023-04-19T07:20:04;7.90;;;6.73;;
11837;SDS011;5978;51.020;6.764;2023-04-19T07:22:31;8.30;;;7.40;;
11837;SDS011;5978;51.020;6.764;2023-04-19T07:24:57;7.47;;;6.40;;
11837;SDS011;5978;51.020;6.764;2023-04-19T07:27:23;8.13;;;6.43;;
11837;SDS011;5978;51.020;6.764;2023-04-19T07:29:49;7.47;;;6.60;;
11837;SDS011;5978;51.020;6.764;2023-04-19T07:32:16;7.73;;;6.43;;
11837;SDS011;5978;51.020;6.764;2023-04-19T07:34:41;8.20;;;6.80;;
11837;SDS011;5978;51.020;6.764;2023-04-19T07:37:07;8.10;;;6.40;;
11837;SDS011;5978;51.020;6.764;2023-04-19T07:39:33;6.73;;;5.63;;
11837;SDS011;5978;51.020;6.764;2023-04-19T07:41:59;13.70;;;6.40;;
11837;SDS011;5978;51.020;6.764;2023-04-19T07:44:25;8.93;;;7.40;;
11837;SDS011;5978;51.020;6.764;2023-04-19T07:46:51;7.00;;;6.17;;
11837;SDS011;5978;51.020;6.764;2023-04-19T07:49:17;9.03;;;6.97;;
11837;SDS011;5978;51.020;6.764;2023-04-19T07:51:43;9.20;;;6.80;;
11837;SDS011;5978;51.020;6.764;2023-04-19T07:54:09;9.13;;;6.90;;
11837;SDS011;5978;51.020;6.764;2023-04-19T07:56:35;7.10;;;6.40;;
11837;SDS011;5978;51.020;6.764;2023-04-19T07:59:00;11.97;;;6.90;;
11837;SDS011;5978;51.020;6.764;2023-04-19T08:01:27;6.63;;;5.87;;
11837;SDS011;5978;51.020;6.764;2023-04-19T08:03:53;12.20;;;7.13;;
11837;SDS011;5978;51.020;6.764;2023-04-19T08:06:19;10.90;;;7.73;;
11837;SDS011;5978;51.020;6.764;2023-04-19T08:08:45;8.50;;;6.80;;
11837;SDS011;5978;51.020;6.764;2023-04-19T08:11:11;8.80;;;6.70;;
11837;SDS011;5978;51.020;6.764;2023-04-19T08:13:37;10.27;;;7.70;;
11837;SDS011;5978;51.020;6.764;2023-04-19T08:16:03;9.37;;;7.57;;
11837;SDS011;5978;51.020;6.764;2023-04-19T08:18:29;8.67;;;7.10;;
11837;SDS011;5978;51.020;6.764;2023-04-19T08:20:55;10.10;;;8.40;;
11837;SDS011;5978;51.020;6.764;2023-04-19T08:23:21;11.23;;;7.97;;
11837;SDS011;5978;51.020;6.764;2023-04-19T08:25:46;7.60;;;6.53;;
11837;SDS011;5978;51.020;6.764;2023-04-19T08:28:12;10.33;;;7.63;;
11837;SDS011;5978;51.020;6.764;2023-04-19T08:30:38;9.60;;;7.07;;
11837;SDS011;5978;51.020;6.764;2023-04-19T08:33:04;9.27;;;7.50;;
11837;SDS011;5978;51.020;6.764;2023-04-19T08:35:30;9.50;;;7.27;;
11837;SDS011;5978;51.020;6.764;2023-04-19T08:37:56;9.53;;;7.60;;
11837;SDS011;5978;51.020;6.764;2023-04-19T08:40:21;9.77;;;7.27;;
11837;SDS011;5978;51.020;6.764;2023-04-19T08:42:48;16.60;;;7.07;;
11837;SDS011;5978;51.020;6.764;2023-04-19T08:45:14;10.33;;;7.67;;
11837;SDS011;5978;51.020;6.764;2023-04-19T08:47:40;8.37;;;6.00;;
11837;SDS011;5978;51.020;6.764;2023-04-19T08:50:06;7.97;;;6.87;;
11837;SDS011;5978;51.020;6.764;2023-04-19T08:52:33;7.57;;;6.20;;
11837;SDS011;5978;51.020;6.764;2023-04-19T08:55:01;7.80;;;5.83;;
11837;SDS011;5978;51.020;6.764;2023-04-19T08:57:31;8.13;;;6.80;;
11837;SDS011;5978;51.020;6.764;2023-04-19T08:59:58;7.13;;;5.87;;
11837;SDS011;5978;51.020;6.764;2023-04-19T09:02:24;7.13;;;6.43;;
11837;SDS011;5978;51.020;6.764;2023-04-19T09:04:49;10.57;;;5.67;;
11837;SDS011;5978;51.020;6.764;2023-04-19T09:07:25;8.93;;;5.77;;
11837;SDS011;5978;51.020;6.764;2023-04-19T09:13:03;5.67;;;5.17;;
11837;SDS011;5978;51.020;6.764;2023-04-19T09:15:36;7.80;;;5.60;;
11837;SDS011;5978;51.020;6.764;2023-04-19T09:18:06;8.50;;;5.30;;
11837;SDS011;5978;51.020;6.764;2023-04-19T09:20:37;5.63;;;4.60;;
11837;SDS011;5978;51.020;6.764;2023-04-19T09:23:04;6.30;;;5.40;;
11837;SDS011;5978;51.020;6.764;2023-04-19T09:25:31;5.77;;;4.20;;
11837;SDS011;5978;51.020;6.764;2023-04-19T09:28:10;6.00;;;5.10;;
11837;SDS011;5978;51.020;6.764;2023-04-19T09:30:37;5.43;;;4.43;;
11837;SDS011;5978;51.020;6.764;2023-04-19T09:33:03;5.83;;;4.80;;
11837;SDS011;5978;51.020;6.764;2023-04-19T09:38:51;6.63;;;4.50;;
11837;SDS011;5978;51.020;6.764;2023-04-19T09:41:16;7.43;;;5.20;;
11837;SDS011;5978;51.020;6.764;2023-04-19T09:43:43;5.50;;;4.73;;
11837;SDS011;5978;51.020;6.764;2023-04-19T09:46:08;4.47;;;4.07;;
11837;SDS011;5978;51.020;6.764;2023-04-19T09:48:53;6.60;;;5.37;;
11837;SDS011;5978;51.020;6.764;2023-04-19T09:51:20;6.07;;;5.43;;
11837;SDS011;5978;51.020;6.764;2023-04-19T09:53:45;6.57;;;5.03;;
11837;SDS011;5978;51.020;6.764;2023-04-19T09:56:13;6.90;;;5.40;;
11837;SDS011;5978;51.020;6.764;2023-04-19T09:58:40;8.67;;;5.33;;
11837;SDS011;5978;51.020;6.764;2023-04-19T10:01:05;6.97;;;5.20;;
11837;SDS011;5978;51.020;6.764;2023-04-19T10:03:36;5.50;;;4.23;;
11837;SDS011;5978;51.020;6.764;2023-04-19T10:06:02;6.63;;;4.03;;
11837;SDS011;5978;51.020;6.764;2023-04-19T10:08:27;9.83;;;4.17;;
11837;SDS011;5978;51.020;6.764;2023-04-19T10:10:54;6.57;;;4.10;;
11837;SDS011;5978;51.020;6.764;2023-04-19T10:13:20;6.10;;;4.07;;
11837;SDS011;5978;51.020;6.764;2023-04-19T10:15:47;4.23;;;3.77;;
11837;SDS011;5978;51.020;6.764;2023-04-19T10:18:13;4.27;;;3.80;;
11837;SDS011;5978;51.020;6.764;2023-04-19T10:23:14;5.17;;;4.37;;
11837;SDS011;5978;51.020;6.764;2023-04-19T10:25:44;4.77;;;3.80;;
11837;SDS011;5978;51.020;6.764;2023-04-19T10:28:11;5.53;;;4.60;;
11837;SDS011;5978;51.020;6.764;2023-04-19T10:30:37;8.87;;;4.07;;
11837;SDS011;5978;51.020;6.764;2023-04-19T10:33:26;5.30;;;3.70;;
11837;SDS011;5978;51.020;6.764;2023-04-19T10:35:57;7.40;;;4.10;;
11837;SDS011;5978;51.020;6.764;2023-04-19T10:38:36;5.83;;;4.23;;
11837;SDS011;5978;51.020;6.764;2023-04-19T10:41:03;6.60;;;4.47;;
11837;SDS011;5978;51.020;6.764;2023-04-19T10:43:35;3.97;;;3.50;;
11837;SDS011;5978;51.020;6.764;2023-04-19T10:46:15;5.60;;;4.40;;
11837;SDS011;5978;51.020;6.764;2023-04-19T10:49:04;4.50;;;3.77;;
11837;SDS011;5978;51.020;6.764;2023-04-19T10:51:36;5.77;;;4.20;;
11837;SDS011;5978;51.020;6.764;2023-04-19T10:54:03;6.73;;;3.40;;
11837;SDS011;5978;51.020;6.764;2023-04-19T11:02:26;4.30;;;3.90;;
11837;SDS011;5978;51.020;6.764;2023-04-19T11:06:55;6.80;;;4.30;;
11837;SDS011;5978;51.020;6.764;2023-04-19T11:09:26;3.50;;;3.10;;
11837;SDS011;5978;51.020;6.764;2023-04-19T11:14:36;7.97;;;3.60;;
11837;SDS011;5978;51.020;6.764;2023-04-19T11:17:20;3.93;;;3.53;;
11837;SDS011;5978;51.020;6.764;2023-04-19T11:19:52;8.87;;;3.27;;
11837;SDS011;5978;51.020;6.764;2023-04-19T11:22:24;3.40;;;3.10;;
11837;SDS011;5978;51.020;6.764;2023-04-19T11:25:08;3.40;;;3.10;;
11837;SDS011;5978;51.020;6.764;2023-04-19T11:27:40;6.50;;;2.90;;
11837;SDS011;5978;51.020;6.764;2023-04-19T11:32:35;3.03;;;2.27;;
11837;SDS011;5978;51.020;6.764;2023-04-19T11:35:05;2.73;;;2.53;;
11837;SDS011;5978;51.020;6.764;2023-04-19T11:37:36;2.70;;;2.50;;
11837;SDS011;5978;51.020;6.764;2023-04-19T11:40:03;3.43;;;2.90;;
11837;SDS011;5978;51.020;6.764;2023-04-19T11:42:30;4.00;;;2.77;;
11837;SDS011;5978;51.020;6.764;2023-04-19T11:44:56;5.37;;;2.70;;
11837;SDS011;5978;51.020;6.764;2023-04-19T11:47:23;5.53;;;2.83;;
11837;SDS011;5978;51.020;6.764;2023-04-19T11:49:50;2.77;;;2.50;;
11837;SDS011;5978;51.020;6.764;2023-04-19T11:52:23;4.70;;;2.73;;
11837;SDS011;5978;51.020;6.764;2023-04-19T11:54:50;3.10;;;2.80;;
11837;SDS011;5978;51.020;6.764;2023-04-19T11:57:26;4.47;;;3.20;;
11837;SDS011;5978;51.020;6.764;2023-04-19T12:00:28;5.00;;;2.97;;
11837;SDS011;5978;51.020;6.764;2023-04-19T12:02:54;3.10;;;2.30;;
11837;SDS011;5978;51.020;6.764;2023-04-19T12:05:26;3.87;;;2.60;;
11837;SDS011;5978;51.020;6.764;2023-04-19T12:08:01;3.20;;;2.90;;
11837;SDS011;5978;51.020;6.764;2023-04-19T12:10:28;6.43;;;3.00;;
11837;SDS011;5978;51.020;6.764;2023-04-19T12:12:55;5.70;;;3.17;;
11837;SDS011;5978;51.020;6.764;2023-04-19T12:15:20;4.93;;;2.73;;
11837;SDS011;5978;51.020;6.764;2023-04-19T12:17:56;4.27;;;3.30;;
11837;SDS011;5978;51.020;6.764;2023-04-19T12:20:32;4.00;;;3.33;;
11837;SDS011;5978;51.020;6.764;2023-04-19T12:22:59;4.20;;;2.80;;
11837;SDS011;5978;51.020;6.764;2023-04-19T12:25:31;5.03;;;2.93;;
11837;SDS011;5978;51.020;6.764;2023-04-19T12:27:58;4.10;;;3.67;;
11837;SDS011;5978;51.020;6.764;2023-04-19T12:30:25;4.17;;;3.17;;
11837;SDS011;5978;51.020;6.764;2023-04-19T12:32:51;4.07;;;3.67;;
11837;SDS011;5978;51.020;6.764;2023-04-19T12:35:25;7.73;;;3.10;;
11837;SDS011;5978;51.020;6.764;2023-04-19T12:37:52;4.60;;;3.13;;
11837;SDS011;5978;51.020;6.764;2023-04-19T12:40:18;6.90;;;3.90;;
11837;SDS011;5978;51.020;6.764;2023-04-19T12:42:44;3.67;;;3.13;;
11837;SDS011;5978;51.020;6.764;2023-04-19T12:45:14;4.70;;;2.67;;
11837;SDS011;5978;51.020;6.764;2023-04-19T12:47:40;4.17;;;3.80;;
11837;SDS011;5978;51.020;6.764;2023-04-19T12:50:07;5.00;;;3.50;;
11837;SDS011;5978;51.020;6.764;2023-04-19T12:52:33;4.40;;;3.70;;
11837;SDS011;5978;51.020;6.764;2023-04-19T12:54:59;4.60;;;4.20;;
11837;SDS011;5978;51.020;6.764;2023-04-19T12:57:25;4.60;;;4.20;;
11837;SDS011;5978;51.020;6.764;2023-04-19T12:59:51;4.73;;;3.97;;
11837;SDS011;5978;51.020;6.764;2023-04-19T13:02:17;4.40;;;4.00;;
11837;SDS011;5978;51.020;6.764;2023-04-19T13:04:42;5.43;;;4.00;;
11837;SDS011;5978;51.020;6.764;2023-04-19T13:07:08;4.70;;;4.20;;
11837;SDS011;5978;51.020;6.764;2023-04-19T13:09:34;4.70;;;3.70;;
11837;SDS011;5978;51.020;6.764;2023-04-19T13:12:00;6.17;;;4.30;;
11837;SDS011;5978;51.020;6.764;2023-04-19T13:14:26;3.50;;;3.20;;
11837;SDS011;5978;51.020;6.764;2023-04-19T13:16:52;5.47;;;3.87;;
11837;SDS011;5978;51.020;6.764;2023-04-19T13:19:18;5.30;;;4.33;;
11837;SDS011;5978;51.020;6.764;2023-04-19T13:21:44;5.83;;;4.00;;
11837;SDS011;5978;51.020;6.764;2023-04-19T13:24:10;4.93;;;3.60;;
11837;SDS011;5978;51.020;6.764;2023-04-19T13:26:36;5.70;;;4.70;;
11837;SDS011;5978;51.020;6.764;2023-04-19T13:29:02;5.10;;;3.23;;
11837;SDS011;5978;51.020;6.764;2023-04-19T13:31:28;6.70;;;3.43;;
11837;SDS011;5978;51.020;6.764;2023-04-19T13:33:55;4.10;;;3.80;;
11837;SDS011;5978;51.020;6.764;2023-04-19T13:36:20;3.73;;;3.43;;
11837;SDS011;5978;51.020;6.764;2023-04-19T13:38:47;3.73;;;3.30;;
11837;SDS011;5978;51.020;6.764;2023-04-19T13:41:13;4.00;;;3.30;;
11837;SDS011;5978;51.020;6.764;2023-04-19T13:43:38;5.13;;;3.77;;
11837;SDS011;5978;51.020;6.764;2023-04-19T13:46:04;3.80;;;3.50;;
11837;SDS011;5978;51.020;6.764;2023-04-19T13:48:30;9.87;;;4.20;;
11837;SDS011;5978;51.020;6.764;2023-04-19T13:50:57;6.13;;;3.90;;
11837;SDS011;5978;51.020;6.764;2023-04-19T13:53:24;7.40;;;4.50;;
11837;SDS011;5978;51.020;6.764;2023-04-19T13:55:51;4.70;;;4.23;;
11837;SDS011;5978;51.020;6.764;2023-04-19T13:58:17;8.03;;;4.43;;
11837;SDS011;5978;51.020;6.764;2023-04-19T14:00:43;3.70;;;3.40;;
11837;SDS011;5978;51.020;6.764;2023-04-19T14:03:09;3.30;;;3.00;;
11837;SDS011;5978;51.020;6.764;2023-04-19T14:05:35;5.83;;;3.57;;
11837;SDS011;5978;51.020;6.764;2023-04-19T14:08:01;6.93;;;4.00;;
11837;SDS011;5978;51.020;6.764;2023-04-19T14:10:27;7.40;;;4.80;;
11837;SDS011;5978;51.020;6.764;2023-04-19T14:12:53;4.23;;;3.83;;
11837;SDS011;5978;51.020;6.764;2023-04-19T14:15:19;5.03;;;4.27;;
11837;SDS011;5978;51.020;6.764;2023-04-19T14:17:45;5.40;;;4.90;;
11837;SDS011;5978;51.020;6.764;2023-04-19T14:20:11;5.73;;;4.97;;
11837;SDS011;5978;51.020;6.764;2023-04-19T14:22:37;5.00;;;4.50;;
11837;SDS011;5978;51.020;6.764;2023-04-19T14:25:04;6.90;;;4.67;;
11837;SDS011;5978;51.020;6.764;2023-04-19T14:27:30;6.27;;;5.17;;
11837;SDS011;5978;51.020;6.764;2023-04-19T14:29:56;6.87;;;4.70;;
11837;SDS011;5978;51.020;6.764;2023-04-19T14:32:22;9.13;;;4.80;;
11837;SDS011;5978;51.020;6.764;2023-04-19T14:34:48;4.63;;;4.23;;
11837;SDS011;5978;51.020;6.764;2023-04-19T14:37:15;4.03;;;3.73;;
11837;SDS011;5978;51.020;6.764;2023-04-19T14:39:43;6.93;;;3.87;;
11837;SDS011;5978;51.020;6.764;2023-04-19T14:42:09;4.37;;;3.60;;
11837;SDS011;5978;51.020;6.764;2023-04-19T14:44:35;4.03;;;3.63;;
11837;SDS011;5978;51.020;6.764;2023-04-19T14:47:00;8.83;;;5.43;;
11837;SDS011;5978;51.020;6.764;2023-04-19T14:49:26;9.30;;;5.00;;
11837;SDS011;5978;51.020;6.764;2023-04-19T14:51:52;7.30;;;5.23;;
11837;SDS011;5978;51.020;6.764;2023-04-19T14:54:18;4.40;;;4.00;;
11837;SDS011;5978;51.020;6.764;2023-04-19T14:56:43;8.47;;;4.93;;
11837;SDS011;5978;51.020;6.764;2023-04-19T14:59:09;6.50;;;4.37;;
11837;SDS011;5978;51.020;6.764;2023-04-19T15:01:35;7.77;;;3.97;;
11837;SDS011;5978;51.020;6.764;2023-04-19T15:04:01;4.73;;;4.00;;
11837;SDS011;5978;51.020;6.764;2023-04-19T15:06:27;7.47;;;4.37;;
11837;SDS011;5978;51.020;6.764;2023-04-19T15:08:53;9.07;;;4.73;;